Latest Coastal Weather Observations for Portland Airport

IDV60701

Issued at 6:41 am EST Monday 26 September 2016 (issued every 10 minutes, with the page automatically refreshed every 10 minutes)

About coastal observations | Map of coastal stations | Coastal observations for VIC | Marine services | Other Formats
Station Details ID: 090171 Name: CASHMORE AIRPORT Lat: -38.31 Lon: 141.47 Height: 80.9 m
Data from the previous 72 hours. | See also: Recent months at Portland Airport
Date/Time
EST
Temp
°C
Wind Pressure Rain since
9am
mm
Weather Cloud Vis
km
Sea
Height
m
Swell
Dir  Spd
kts
Gust
kts
hPa Trend Height
m
Period
s
Dir
26/06:30am 6.1 N 7 9 1011.0 - 0.0 - - 10 - - - -
26/06:00am 5.8 N 6 7 1011.2 - 0.0 - Partly cloudy 10 - - - -
26/05:30am 5.9 NNW 7 9 1011.2 - 0.0 - Partly cloudy 10 - - - -
26/05:00am 5.8 NNW 7 10 1011.3 - 0.0 - Partly cloudy 10 - - - -
26/04:30am 5.5 NNW 6 7 1011.3 - 0.0 - - 10 - - - -
26/04:00am 5.7 NNW 6 8 1011.4 - 0.0 - - 10 - - - -
26/03:30am 6.1 NNW 6 8 1011.5 - 0.0 - Partly cloudy 10 - - - -
26/03:00am 6.8 NNW 7 9 1011.8 - 0.0 - Mostly clear 10 - - - -
26/02:30am 6.8 NNW 7 9 1012.1 - 0.0 - - 10 - - - -
26/02:00am 7.7 NNW 8 10 1012.5 - 0.0 - Partly cloudy 10 - - - -
26/01:30am 7.3 NNW 5 7 1012.7 - 0.0 - Cloudy 10 - - - -
26/01:00am 7.4 NW 1 4 1013.0 - 0.0 - Partly cloudy 10 - - - -
26/12:30am 7.9 NNW 5 7 1013.2 - 0.0 - Partly cloudy 10 - - - -
26/12:00am 8.0 NNW 6 7 1013.2 - 0.0 - Cloudy 10 - - - -
 
Date/Time
EST
Temp
°C
Wind Pressure Rain since
9am
mm
Weather Cloud Vis
km
Sea
Height
m
Swell
Dir  Spd
kts
Gust
kts
hPa Trend Height
m
Period
s
Dir
25/11:30pm 8.1 NNW 6 8 1013.4 - 0.0 - - 10 - - - -
25/11:00pm 7.9 NNW 7 8 1013.5 - 0.0 - - 10 - - - -
25/10:30pm 7.4 NNW 4 6 1013.8 - 0.0 - Partly cloudy 10 - - - -
25/10:00pm 7.7 NNW 7 7 1013.7 - 0.0 - - 10 - - - -
25/09:30pm 7.8 N 5 7 1013.7 - 0.0 - Partly cloudy 10 - - - -
25/09:00pm 8.2 N 5 6 1013.8 - 0.0 - Cloudy 10 - - - -
25/08:30pm 8.3 N 5 6 1013.8 - 0.0 - Partly cloudy 10 - - - -
25/08:00pm 9.1 WNW 6 8 1013.7 - 0.0 - - 10 - - - -
25/07:30pm 8.8 WNW 6 7 1013.4 - 0.0 - - 10 - - - -
25/07:00pm 9.0 W 6 8 1013.1 - 0.0 - - 10 - - - -
25/06:30pm 9.6 WNW 6 7 1012.8 - 0.0 - - 10 - - - -
25/06:00pm 10.8 WNW 7 9 1012.6 - 0.0 - Mostly clear 10 - - - -
25/05:30pm 11.2 W 10 13 1012.3 - 0.0 - - 10 - - - -
25/05:00pm 11.6 W 11 15 1012.2 - 0.0 - - 10 - - - -
25/04:30pm 11.6 WNW 10 14 1012.2 - 0.0 - - 10 - - - -
25/04:00pm 12.0 W 10 15 1012.1 - 0.0 - Partly cloudy 10 - - - -
25/03:30pm 11.9 WSW 10 14 1011.9 - 0.0 - Partly cloudy 10 - - - -
25/03:00pm 12.2 W 11 16 1012.2 - 0.0 - Partly cloudy 10 - - - -
25/02:30pm 12.5 W 11 17 1012.2 - 0.0 - Partly cloudy 10 - - - -
25/02:00pm 12.1 W 10 16 1012.4 - 0.0 - Partly cloudy 10 - - - -
25/01:30pm 12.5 WSW 11 15 1012.4 - 0.0 - Partly cloudy 10 - - - -
25/01:00pm 12.3 WSW 12 17 1012.5 - 0.0 - Partly cloudy 10 - - - -
25/12:30pm 12.5 W 15 19 1012.8 - 0.0 - Partly cloudy 10 - - - -
25/12:00pm 12.3 WSW 14 20 1012.7 - 0.0 - Mostly clear 10 - - - -
25/11:30am 12.3 W 15 20 1012.9 - 0.0 - Partly cloudy 10 - - - -
25/11:00am 12.2 WSW 13 21 1013.0 - 0.0 - Partly cloudy 10 - - - -
25/10:30am 11.8 WSW 14 19 1012.8 - 0.0 - Partly cloudy 10 - - - -
25/10:00am 11.6 W 13 18 1012.7 - 0.0 - Partly cloudy 10 - - - -
25/09:30am 10.2 WSW 9 13 1012.6 - 0.0 - Partly cloudy 10 - - - -
25/09:00am 11.1 W 14 18 1012.3 - 12.0 - Mostly clear 10 - - - -
25/08:30am 9.8 WSW 8 12 1012.0 - 12.0 - Partly cloudy 10 - - - -
25/08:00am 10.6 WSW 10 14 1011.5 - 12.0 - Partly cloudy 10 - - - -
25/07:30am 7.8 WSW 7 9 1011.2 - 12.0 - Partly cloudy 10 - - - -
25/07:06am 8.8 W 10 19 1010.9 - 11.8 - Partly cloudy 10 - - - -
25/07:00am 7.9 W 6 9 1010.8 - 11.8 - Partly cloudy 10 - - - -
25/06:52am 7.2 WSW 7 11 1010.6 - 11.8 - Partly cloudy 10 - - - -
25/06:34am 7.5 WSW 9 19 1010.6 - 11.6 - Partly cloudy 6 - - - -
25/06:30am 7.7 WSW 7 10 1010.4 - 10.6 - Partly cloudy 10 - - - -
25/06:00am 9.1 WSW 9 12 1009.9 - 10.2 - Cloudy 10 - - - -
25/05:30am 8.7 W 11 15 1009.8 - 10.2 - Partly cloudy 10 - - - -
25/05:00am 8.5 WSW 11 16 1009.4 - 10.2 - Partly cloudy 10 - - - -
25/04:30am 8.8 WSW 12 17 1009.1 - 10.2 - Partly cloudy 10 - - - -
25/04:00am 8.5 W 11 16 1008.8 - 10.2 - Partly cloudy 10 - - - -
25/03:30am 9.2 WSW 14 18 1008.5 - 10.2 - Partly cloudy 10 - - - -
25/03:00am 8.4 W 10 13 1008.5 - 10.2 - Cloudy 10 - - - -
25/02:30am 9.1 WSW 12 17 1008.6 - 10.2 - Partly cloudy 10 - - - -
25/02:00am 8.7 WNW 12 18 1008.5 - 10.2 - Partly cloudy 10 - - - -
25/01:30am 9.2 WSW 11 17 1008.4 - 10.2 - Partly cloudy 10 - - - -
25/01:00am 9.1 W 13 19 1008.4 - 10.2 - Partly cloudy 10 - - - -
25/12:30am 9.0 W 13 25 1008.3 - 10.2 - Partly cloudy 10 - - - -
25/12:21am 9.5 W 15 25 1008.2 - 10.2 - Partly cloudy 10 - - - -
25/12:00am 9.5 W 14 18 1008.0 - 10.2 - Mostly clear 10 - - - -
 
Date/Time
EST
Temp
°C
Wind Pressure Rain since
9am
mm
Weather Cloud Vis
km
Sea
Height
m
Swell
Dir  Spd
kts
Gust
kts
hPa Trend Height
m
Period
s
Dir
24/11:30pm 9.8 W 14 19 1008.0 - 10.2 - Partly cloudy 10 - - - -
24/11:00pm 9.9 W 15 21 1008.0 - 10.2 - Partly cloudy 10 - - - -
24/10:30pm 10.5 W 13 17 1007.9 - 10.2 - Partly cloudy 10 - - - -
24/10:00pm 10.1 W 10 15 1007.7 - 10.2 - Partly cloudy 10 - - - -
24/09:30pm 10.7 WSW 9 13 1007.6 - 10.2 - Partly cloudy 10 - - - -
24/09:00pm 10.0 WSW 9 13 1007.3 - 10.2 Recent precip. Mostly clear 10 - - - -
24/08:30pm 10.4 WSW 12 15 1007.0 - 10.2 - Partly cloudy 10 - - - -
24/08:00pm 11.3 WSW 10 14 1006.5 - 9.6 - Partly cloudy 10 - - - -
24/07:30pm 11.0 WSW 11 15 1006.1 - 9.6 - Partly cloudy 10 - - - -
24/07:00pm 11.2 WSW 11 15 1005.4 - 9.6 - Partly cloudy 10 - - - -
24/06:30pm 11.5 WSW 15 21 1004.7 - 9.6 - Partly cloudy 10 - - - -
24/06:01pm 11.5 WSW 15 23 1004.4 - 9.6 - Partly cloudy 10 - - - -
24/06:00pm 11.4 WSW 15 23 1004.4 - 9.6 Recent precip. Mostly cloudy 10 - - - -
24/05:43pm 11.5 WSW 15 21 1004.0 - 9.6 - Partly cloudy 10 - - - -
24/05:30pm 11.5 WSW 18 25 1003.5 - 9.6 - Partly cloudy 5 - - - -
24/05:19pm 11.7 WSW 17 27 1003.2 - 8.8 - Partly cloudy 4 - - - -
24/05:16pm 12.0 WSW 16 22 1003.2 - 8.4 - Partly cloudy 4 - - - -
24/05:00pm 12.7 NNW 12 17 1002.7 - 6.2 - Partly cloudy 6 - - - -
24/04:30pm 13.1 NNW 10 15 1002.4 - 3.2 - Partly cloudy 10 - - - -
24/04:00pm 13.1 N 9 13 1002.1 - 2.6 - Partly cloudy 10 - - - -
24/03:30pm 13.3 N 9 13 1002.4 - 2.4 - Partly cloudy 10 - - - -
24/03:00pm 13.4 N 11 14 1002.6 - 1.8 Recent precip. Cloudy 10 - - - -
24/02:30pm 13.5 NNW 9 14 1002.8 - 1.2 - Partly cloudy 10 - - - -
24/02:00pm 14.3 NNW 9 13 1002.7 - 0.8 - Partly cloudy 10 - - - -
24/01:30pm 13.6 NNW 10 15 1003.1 - 0.8 - Partly cloudy 10 - - - -
24/01:00pm 13.0 NNW 12 17 1003.3 - 0.4 - Partly cloudy 10 - - - -
24/12:30pm 14.9 NNW 11 17 1003.5 - 0.0 - Partly cloudy 10 - - - -
24/12:00pm 15.5 NNW 14 21 1003.5 - 0.0 - Cloudy 10 - - - -
24/11:30am 15.3 NNW 14 20 1003.5 - 0.0 - Partly cloudy 10 - - - -
24/11:00am 15.6 N 13 19 1003.8 - 0.0 - Partly cloudy 10 - - - -
24/10:30am 14.5 N 12 17 1004.2 - 0.0 - Partly cloudy 10 - - - -
24/10:00am 13.4 N 11 15 1004.5 - 0.0 - Partly cloudy 10 - - - -
24/09:30am 12.3 N 10 14 1004.7 - 0.0 - Cloudy 10 - - - -
24/09:00am 11.4 N 10 15 1004.7 - 0.0 - Mostly cloudy 10 - - - -
24/08:30am 10.9 N 10 13 1004.8 - 0.0 - Partly cloudy 10 - - - -
24/08:00am 10.8 NNE 10 14 1004.8 - 0.0 - Cloudy 10 - - - -
24/07:30am 10.2 NNE 9 13 1005.1 - 0.0 - Cloudy 10 - - - -
24/07:00am 9.3 N 8 12 1005.2 - 0.0 - - 10 - - - -
24/06:30am 8.5 NNE 8 12 1005.2 - 0.0 - - 10 - - - -
24/06:00am 8.0 N 8 11 1005.4 - 0.0 - Cloudy 10 - - - -
24/05:30am 7.3 NNE 7 9 1005.5 - 0.0 - - 10 - - - -
24/05:00am 6.7 NNE 6 8 1005.3 - 0.0 - - 10 - - - -
24/04:30am 6.8 NNE 7 8 1005.9 - 0.0 - - 10 - - - -
24/04:00am 6.6 NNE 6 8 1006.2 - 0.0 - - 10 - - - -
24/03:30am 6.7 NE 7 8 1006.4 - 0.0 - - 10 - - - -
24/03:00am 7.3 NE 5 8 1006.9 - 0.0 - - 10 - - - -
24/02:30am 7.1 NNE 5 6 1007.5 - 0.0 - - 10 - - - -
24/02:00am 6.4 NNE 4 5 1008.0 - 0.0 - - 10 - - - -
24/01:30am 6.8 N 3 4 1008.4 - 0.0 - - 10 - - - -
24/01:00am 8.3 NNE 4 6 1008.5 - 0.0 - - 10 - - - -
24/12:30am 8.9 NNE 7 9 1008.4 - 0.0 - - 10 - - - -
24/12:00am 9.1 NNE 8 10 1008.6 - 0.0 - Mostly cloudy 10 - - - -
 
Date/Time
EST
Temp
°C
Wind Pressure Rain since
9am
mm
Weather Cloud Vis
km
Sea
Height
m
Swell
Dir  Spd
kts
Gust
kts
hPa Trend Height
m
Period
s
Dir
23/11:30pm 8.3 NNE 4 5 1009.0 - 0.0 - - 10 - - - -
23/11:00pm 9.0 NNE 5 7 1009.3 - 0.0 - - 10 - - - -
23/10:30pm 8.7 NNE 5 6 1009.7 - 0.0 - - 10 - - - -
23/10:00pm 8.8 NNE 4 5 1010.0 - 0.0 - - 10 - - - -
23/09:30pm 8.8 NNE 4 5 1010.3 - 0.0 - - 10 - - - -
23/09:00pm 9.0 NNE 4 4 1010.5 - 0.0 - Cloudy 10 - - - -
23/08:30pm 9.0 NNE 3 4 1010.7 - 0.0 - - 10 - - - -
23/08:00pm 9.2 CALM 0 0 1010.7 - 0.0 - - 10 - - - -
23/07:30pm 10.1 CALM 0 0 1010.7 - 0.0 - - 10 - - - -
23/07:00pm 11.0 CALM 0 0 1010.5 - 0.0 - - 10 - - - -
23/06:30pm 12.3 NNE 4 5 1010.2 - 0.0 - - 10 - - - -
23/06:00pm 13.2 NNE 6 8 1010.2 - 0.0 - Partly cloudy 10 - - - -
23/05:30pm 14.0 NNE 6 9 1010.0 - 0.0 - - 10 - - - -
23/05:00pm 14.8 NNE 9 11 1010.0 - 0.0 - - 10 - - - -
23/04:30pm 14.4 N 7 12 1010.5 - 0.0 - - 10 - - - -
23/04:00pm 14.6 NNE 7 11 1010.2 - 0.0 - - 10 - - - -
23/03:30pm 14.6 NNE 4 7 1010.7 - 0.0 - - 10 - - - -
23/03:00pm 14.7 NNE 8 11 1011.2 - 0.0 - Mostly clear 10 - - - -
23/02:30pm 14.6 NNE 7 11 1011.4 - 0.0 - - 10 - - - -
23/02:00pm 13.9 NNE 7 11 1011.8 - 0.0 - - 10 - - - -
23/01:30pm 14.1 NNE 7 12 1012.5 - 0.0 - - 10 - - - -
23/01:00pm 13.6 NE 7 11 1013.0 - 0.0 - - 10 - - - -
23/12:30pm 12.3 NNE 7 12 1013.8 - 0.0 - - 10 - - - -
23/12:00pm 12.5 NE 7 11 1014.1 - 0.0 - Mostly cloudy 10 - - - -
23/11:30am 11.7 NNE 9 13 1014.6 - 0.0 - - 10 - - - -
23/11:00am 12.1 ENE 8 13 1015.2 - 0.0 - Partly cloudy 10 - - - -
23/10:30am 11.9 ENE 7 12 1015.6 - 0.0 - Partly cloudy 10 - - - -
23/10:00am 10.7 ENE 8 13 1016.2 - 0.0 - Partly cloudy 10 - - - -
23/09:30am 10.7 ENE 7 11 1016.6 - 0.0 - Partly cloudy 10 - - - -
23/09:00am 9.3 NE 7 9 1017.0 - 0.0 - Cloudy 10 - - - -
23/08:30am 8.0 NNE 6 8 1017.3 - 0.0 - Cloudy 10 - - - -
23/08:00am 7.4 NNE 4 5 1017.6 - 0.0 - Cloudy 10 - - - -
23/07:30am 5.9 NNW 1 5 1017.9 - 0.0 - Cloudy 10 - - - -
23/07:00am 4.5 NNW 4 5 1017.8 - 0.0 - Partly cloudy 10 - - - -

Other Formats:

Comma delimited format used in spreadsheet applications
http://www.bom.gov.au/fwo/IDV60701/IDV60701.94828.axf

JavaScript Object Notation format (JSON) in row-major order
http://www.bom.gov.au/fwo/IDV60701/IDV60701.94828.json